Time;durP1;ratioP1;P1;durP2;ratioP2;P2;SDS_P1;SDS_P2;PMS_P1;PMS_P2;Temp;Humidity;BMP_temperature;BMP_pressure;BME280_temperature;BME280_humidity;BME280_pressure;Samples;Min_cycle;Max_cycle;Signal;HPM_P1;HPM_P2
2021/04/13 00:02:14;;;;;;;4.40;3.75;;;3.20;98.30;;;;;;5117192;23;20241;-78
2021/04/13 00:04:16;;;;;;;6.18;4.18;;;3.20;98.30;;;;;;5117089;23;20992;-78
2021/04/13 00:06:29;;;;;;;4.22;3.40;;;3.20;98.30;;;;;;5125893;23;20202;-78
2021/04/13 00:08:31;;;;;;;5.13;3.83;;;3.20;98.30;;;;;;5125730;23;20531;-78
2021/04/13 00:10:38;;;;;;;5.95;3.60;;;3.20;98.30;;;;;;5125046;23;20209;-78
2021/04/13 00:12:39;;;;;;;7.38;3.65;;;3.10;98.30;;;;;;5117267;23;20209;-78
2021/04/13 00:14:45;;;;;;;6.30;4.47;;;3.10;98.30;;;;;;5115255;23;20265;-78
2021/04/13 00:16:48;;;;;;;5.68;4.07;;;3.20;98.30;;;;;;5117646;23;20207;-78
2021/04/13 00:18:52;;;;;;;4.93;4.13;;;3.10;98.30;;;;;;5118584;23;20206;-78
2021/04/13 00:20:58;;;;;;;6.85;3.90;;;3.10;98.30;;;;;;5121035;23;20211;-78
2021/04/13 00:23:01;;;;;;;12.25;4.38;;;3.10;98.30;;;;;;5120492;23;20545;-78
2021/04/13 00:25:06;;;;;;;5.75;3.83;;;3.10;98.30;;;;;;5120640;23;20511;-78
2021/04/13 00:27:13;;;;;;;5.50;4.10;;;3.10;98.30;;;;;;5119957;23;20669;-78
2021/04/13 00:29:20;;;;;;;7.35;4.30;;;3.10;98.30;;;;;;5119210;23;20213;-78
2021/04/13 00:31:39;;;;;;;4.78;3.85;;;3.10;98.30;;;;;;5120964;23;20210;-78
2021/04/13 00:33:43;;;;;;;5.03;4.53;;;3.10;98.30;;;;;;5119891;23;20207;-79
2021/04/13 00:35:46;;;;;;;7.00;4.10;;;3.10;98.30;;;;;;5120774;23;20289;-79
2021/04/13 00:37:48;;;;;;;6.35;4.05;;;3.00;98.30;;;;;;5119659;23;20206;-78
2021/04/13 00:39:53;;;;;;;11.35;3.70;;;3.00;98.30;;;;;;5119161;23;20210;-78
2021/04/13 00:41:58;;;;;;;6.50;4.05;;;3.00;98.30;;;;;;5126771;23;20198;-78
2021/04/13 00:44:02;;;;;;;6.97;4.03;;;3.00;98.30;;;;;;5127147;23;20199;-78
2021/04/13 00:46:06;;;;;;;6.38;3.70;;;3.00;98.30;;;;;;5118700;23;20209;-78
2021/04/13 00:48:11;;;;;;;7.55;4.10;;;3.00;98.30;;;;;;5118673;23;20213;-78
2021/04/13 00:50:23;;;;;;;5.22;3.90;;;3.00;98.30;;;;;;5118065;23;20261;-78
2021/04/13 00:52:35;;;;;;;4.88;3.92;;;3.00;98.30;;;;;;5118619;23;20206;-78
2021/04/13 00:54:41;;;;;;;8.63;3.90;;;2.90;98.30;;;;;;5118507;23;20206;-78
2021/04/13 00:56:44;;;;;;;8.68;4.38;;;2.90;98.30;;;;;;5120065;23;20221;-78
2021/04/13 00:58:57;;;;;;;5.97;4.55;;;2.90;98.30;;;;;;5119245;23;20232;-78
2021/04/13 01:01:01;;;;;;;11.13;5.30;;;2.90;98.30;;;;;;5128077;23;20199;-78
2021/04/13 01:03:05;;;;;;;8.02;4.43;;;2.90;98.30;;;;;;5119829;23;20210;-79
2021/04/13 01:05:17;;;;;;;6.97;4.50;;;2.90;98.30;;;;;;5119857;23;20259;-78
2021/04/13 01:07:27;;;;;;;5.80;4.25;;;2.90;98.30;;;;;;5119071;23;20210;-78
2021/04/13 01:09:29;;;;;;;4.65;3.90;;;2.90;98.30;;;;;;5118160;23;20677;-78
2021/04/13 01:11:39;;;;;;;5.18;3.97;;;2.90;98.30;;;;;;5118705;23;20732;-78
2021/04/13 01:13:48;;;;;;;4.70;4.28;;;2.80;98.30;;;;;;5118970;23;20705;-78
2021/04/13 01:15:52;;;;;;;6.22;4.28;;;2.80;98.30;;;;;;5118326;23;20532;-78
2021/04/13 01:17:55;;;;;;;6.88;4.05;;;2.80;98.30;;;;;;5117439;23;20213;-79
2021/04/13 01:20:01;;;;;;;5.55;3.97;;;2.70;98.30;;;;;;5124792;23;20203;-78
2021/04/13 01:22:14;;;;;;;8.40;4.30;;;2.70;98.30;;;;;;5118622;23;20210;-78
2021/04/13 01:24:22;;;;;;;5.53;4.43;;;2.70;98.30;;;;;;5128984;23;20199;-79
2021/04/13 01:26:29;;;;;;;6.90;4.32;;;2.70;98.30;;;;;;5128152;23;20220;-78
2021/04/13 01:28:35;;;;;;;5.60;4.10;;;2.80;98.30;;;;;;5119629;23;20233;-78
2021/04/13 01:30:43;;;;;;;8.20;4.95;;;2.80;98.30;;;;;;5118517;23;20217;-78
2021/04/13 01:32:45;;;;;;;6.03;4.10;;;2.80;98.30;;;;;;5118330;23;20968;-78
2021/04/13 01:35:03;;;;;;;6.85;3.80;;;2.80;98.30;;;;;;5120026;23;20229;-78
2021/04/13 01:37:14;;;;;;;6.10;4.20;;;2.80;98.30;;;;;;5119537;23;20684;-78
2021/04/13 01:39:22;;;;;;;6.88;4.20;;;2.80;98.30;;;;;;5119106;23;20214;-78
2021/04/13 01:41:30;;;;;;;5.45;4.30;;;2.80;98.30;;;;;;5119416;23;20206;-78
2021/04/13 01:43:37;;;;;;;8.98;5.00;;;2.70;98.30;;;;;;5119137;23;20236;-78
2021/04/13 01:45:41;;;;;;;7.63;4.75;;;2.70;98.30;;;;;;5118902;23;20721;-78
2021/04/13 01:47:44;;;;;;;7.25;5.05;;;2.70;98.30;;;;;;5119259;23;20217;-78
2021/04/13 01:49:50;;;;;;;7.60;4.45;;;2.70;98.30;;;;;;5117408;23;20218;-78
2021/04/13 01:51:53;;;;;;;6.63;4.80;;;2.60;98.30;;;;;;5119334;23;20210;-78
2021/04/13 01:53:55;;;;;;;8.05;4.95;;;2.60;98.30;;;;;;5127359;23;20202;-78
2021/04/13 01:55:59;;;;;;;8.80;5.32;;;2.60;98.30;;;;;;5118146;23;20211;-78
2021/04/13 01:58:09;;;;;;;6.10;4.20;;;2.60;98.30;;;;;;5121230;23;20237;-78
2021/04/13 02:00:16;;;;;;;8.00;5.30;;;2.60;98.30;;;;;;5119662;23;20217;-78
2021/04/13 02:02:26;;;;;;;7.28;5.00;;;2.60;98.30;;;;;;5120003;23;20533;-79
2021/04/13 02:04:35;;;;;;;6.95;4.90;;;2.60;98.30;;;;;;5121352;23;20218;-78
2021/04/13 02:06:41;;;;;;;8.60;5.20;;;2.60;98.30;;;;;;5126499;23;20206;-78
2021/04/13 02:08:47;;;;;;;6.63;5.00;;;2.50;98.30;;;;;;5117872;23;20871;-78
2021/04/13 02:10:54;;;;;;;7.28;5.25;;;2.50;98.30;;;;;;5117686;23;20210;-78
2021/04/13 02:13:02;;;;;;;7.60;5.05;;;2.60;98.30;;;;;;5118475;23;20642;-78
2021/04/13 02:15:11;;;;;;;9.98;6.20;;;2.50;98.30;;;;;;5118876;23;20210;-78
2021/04/13 02:17:19;;;;;;;7.30;5.45;;;2.50;98.30;;;;;;5120126;23;20206;-78
2021/04/13 02:19:25;;;;;;;7.25;5.05;;;2.50;98.30;;;;;;5119970;23;20665;-78
2021/04/13 02:21:31;;;;;;;7.13;5.78;;;2.40;98.30;;;;;;5119147;23;20745;-78
2021/04/13 02:23:33;;;;;;;8.35;5.20;;;2.40;98.30;;;;;;5118237;23;20555;-78
2021/04/13 02:25:38;;;;;;;6.90;5.35;;;2.40;98.30;;;;;;5117819;23;20217;-78
2021/04/13 02:27:43;;;;;;;11.82;5.05;;;2.40;98.30;;;;;;5118204;23;20233;-78
2021/04/13 02:29:48;;;;;;;7.57;6.20;;;2.40;98.30;;;;;;5117277;23;20210;-78
2021/04/13 02:31:57;;;;;;;10.20;5.50;;;2.40;98.30;;;;;;5117510;23;20206;-78
2021/04/13 02:33:59;;;;;;;10.02;5.85;;;2.40;98.30;;;;;;5117660;23;20573;-78
2021/04/13 02:36:13;;;;;;;11.05;5.97;;;2.40;98.30;;;;;;5118019;23;20206;-78
2021/04/13 02:38:19;;;;;;;8.10;5.63;;;2.40;98.30;;;;;;5118005;23;20212;-78
2021/04/13 02:40:26;;;;;;;12.32;6.22;;;2.40;98.30;;;;;;5117689;23;20213;-78
2021/04/13 02:42:28;;;;;;;11.30;7.43;;;2.40;98.30;;;;;;5118422;23;20249;-78
2021/04/13 02:44:30;;;;;;;9.00;6.15;;;2.40;98.30;;;;;;5122511;23;20207;-78
2021/04/13 02:46:34;;;;;;;9.50;5.88;;;2.40;98.30;;;;;;5119204;23;20210;-79
2021/04/13 02:48:41;;;;;;;8.13;6.00;;;2.40;98.30;;;;;;5128290;23;20202;-78
2021/04/13 02:50:46;;;;;;;10.45;6.63;;;2.40;98.30;;;;;;5118031;23;20241;-78
2021/04/13 02:52:51;;;;;;;8.55;5.47;;;2.40;98.30;;;;;;5117655;23;20242;-78
2021/04/13 02:54:58;;;;;;;7.40;5.28;;;2.40;98.30;;;;;;5118659;23;20214;-78
2021/04/13 02:57:04;;;;;;;10.27;5.68;;;2.40;98.30;;;;;;5118341;23;20213;-78
2021/04/13 02:59:20;;;;;;;13.00;6.30;;;2.40;98.30;;;;;;5117484;23;20214;-78
2021/04/13 03:01:23;;;;;;;12.38;5.97;;;2.40;98.30;;;;;;5123174;23;20209;-78
2021/04/13 03:03:29;;;;;;;10.80;5.97;;;2.40;98.30;;;;;;5114971;23;20294;-78
2021/04/13 03:05:31;;;;;;;7.03;4.80;;;2.40;98.30;;;;;;5115055;23;20273;-79
2021/04/13 03:07:39;;;;;;;7.22;5.55;;;2.40;98.30;;;;;;5123061;23;20209;-78
2021/04/13 03:09:42;;;;;;;8.88;6.10;;;2.40;98.30;;;;;;5113894;23;20211;-78
2021/04/13 03:11:46;;;;;;;8.20;5.75;;;2.30;98.30;;;;;;5115070;23;20210;-78
2021/04/13 03:13:51;;;;;;;10.52;7.00;;;2.40;98.30;;;;;;5115214;23;20533;-78
2021/04/13 03:15:55;;;;;;;8.95;5.70;;;2.40;98.30;;;;;;5123144;23;20206;-78
2021/04/13 03:18:00;;;;;;;7.90;5.40;;;2.40;98.30;;;;;;5114645;23;20210;-78
2021/04/13 03:20:07;;;;;;;9.88;5.68;;;2.40;98.30;;;;;;5122085;23;20198;-78
2021/04/13 03:22:10;;;;;;;11.13;5.88;;;2.40;98.30;;;;;;5115027;23;20209;-78
2021/04/13 03:24:15;;;;;;;7.78;5.90;;;2.40;98.30;;;;;;5114717;23;20219;-79
2021/04/13 03:26:24;;;;;;;8.05;5.30;;;2.40;98.30;;;;;;5122990;23;20206;-78
2021/04/13 03:28:30;;;;;;;9.15;7.07;;;2.40;98.30;;;;;;5122957;23;20209;-78
2021/04/13 03:30:36;;;;;;;10.25;5.55;;;2.40;98.30;;;;;;5113537;23;20202;-79
2021/04/13 03:32:42;;;;;;;8.85;6.85;;;2.40;98.30;;;;;;5114691;23;20214;-78
2021/04/13 03:34:45;;;;;;;7.78;5.75;;;2.40;98.30;;;;;;5114616;23;20571;-78
2021/04/13 03:36:50;;;;;;;8.30;5.75;;;2.40;98.30;;;;;;5114274;23;20206;-78
2021/04/13 03:38:56;;;;;;;10.50;6.65;;;2.40;98.30;;;;;;5121867;23;20205;-78
2021/04/13 03:41:02;;;;;;;9.88;6.38;;;2.40;98.30;;;;;;5123107;23;20226;-77
2021/04/13 03:43:07;;;;;;;10.85;6.70;;;2.40;98.30;;;;;;5114088;23;20246;-78
2021/04/13 03:45:12;;;;;;;9.85;5.93;;;2.40;98.30;;;;;;5114473;23;20265;-79
2021/04/13 03:47:22;;;;;;;11.25;6.40;;;2.30;98.30;;;;;;5113958;23;20213;-79
2021/04/13 03:49:29;;;;;;;10.93;6.75;;;2.40;98.30;;;;;;5114010;23;20210;-78
2021/04/13 03:51:38;;;;;;;18.95;7.30;;;2.40;98.30;;;;;;5114583;23;20206;-78
2021/04/13 03:53:45;;;;;;;7.32;6.07;;;2.40;98.30;;;;;;5114341;23;20244;-78
2021/04/13 03:55:58;;;;;;;14.07;7.05;;;2.40;98.30;;;;;;5114335;23;20210;-78
2021/04/13 03:58:16;;;;;;;8.48;6.00;;;2.40;98.30;;;;;;5122447;23;20207;-78
2021/04/13 04:00:22;;;;;;;11.25;6.45;;;2.40;98.30;;;;;;5113637;23;20207;-79
2021/04/13 04:02:24;;;;;;;12.63;6.20;;;2.40;98.30;;;;;;5114718;23;20718;-78
2021/04/13 04:04:31;;;;;;;10.77;6.57;;;2.40;98.30;;;;;;5114818;23;20689;-78
2021/04/13 04:06:38;;;;;;;11.65;6.85;;;2.40;98.30;;;;;;5114341;23;20210;-78
2021/04/13 04:08:47;;;;;;;8.73;6.65;;;2.40;98.30;;;;;;5122758;23;20206;-79
2021/04/13 04:10:51;;;;;;;9.82;6.70;;;2.40;98.30;;;;;;5114123;23;20289;-79
2021/04/13 04:13:02;;;;;;;10.43;7.40;;;2.40;98.30;;;;;;5122353;23;20204;-78
2021/04/13 04:15:07;;;;;;;17.38;10.52;;;2.30;98.30;;;;;;5114616;23;20217;-78
2021/04/13 04:17:14;;;;;;;8.73;7.40;;;2.30;98.30;;;;;;5114063;23;20233;-78
2021/04/13 04:19:19;;;;;;;9.35;6.88;;;2.30;98.30;;;;;;5122456;23;20234;-78
2021/04/13 04:21:34;;;;;;;10.45;7.30;;;2.30;98.30;;;;;;5123134;23;20217;-78
2021/04/13 04:23:37;;;;;;;8.98;7.10;;;2.30;98.30;;;;;;5114801;23;20301;-78
2021/04/13 04:25:43;;;;;;;8.82;7.43;;;2.30;98.30;;;;;;5114694;23;20215;-78
2021/04/13 04:27:47;;;;;;;10.82;6.82;;;2.30;98.30;;;;;;5122621;23;20206;-78
2021/04/13 04:29:51;;;;;;;10.05;7.07;;;2.30;98.30;;;;;;5113810;23;20214;-78
2021/04/13 04:31:57;;;;;;;10.18;7.05;;;2.30;98.30;;;;;;5115914;23;20537;-78
2021/04/13 04:33:59;;;;;;;10.25;7.25;;;2.30;98.30;;;;;;5116208;23;20245;-78
2021/04/13 04:36:01;;;;;;;10.60;7.15;;;2.20;98.30;;;;;;5116372;23;20281;-78
2021/04/13 04:38:23;;;;;;;14.07;8.10;;;2.20;98.30;;;;;;5124189;23;20203;-78
2021/04/13 04:40:54;;;;;;;12.25;7.85;;;2.30;98.30;;;;;;5115649;23;20213;-79
2021/04/13 04:43:00;;;;;;;10.80;6.60;;;2.40;98.30;;;;;;5107646;23;20285;-78
2021/04/13 04:45:18;;;;;;;10.68;6.80;;;2.40;98.30;;;;;;5115797;23;20632;-78
2021/04/13 04:47:36;;;;;;;9.55;6.57;;;2.40;98.30;;;;;;5115922;23;20202;-78
2021/04/13 04:49:40;;;;;;;9.63;7.00;;;2.50;98.30;;;;;;5116896;23;20214;-81
2021/04/13 04:51:46;;;;;;;11.18;6.75;;;2.40;98.30;;;;;;5127296;23;20233;-78
2021/04/13 04:53:48;;;;;;;8.35;6.18;;;2.40;98.30;;;;;;5115884;23;20227;-78
2021/04/13 04:55:51;;;;;;;10.48;7.20;;;2.40;98.30;;;;;;5124287;23;20198;-79
2021/04/13 04:57:53;;;;;;;15.02;9.45;;;2.50;98.30;;;;;;5124233;23;20209;-79
2021/04/13 04:59:55;;;;;;;6.63;5.55;;;2.60;98.30;;;;;;5114806;23;20221;-79
2021/04/13 05:01:57;;;;;;;10.82;6.38;;;2.70;98.30;;;;;;5115435;23;20206;-79
2021/04/13 05:04:02;;;;;;;10.32;5.50;;;2.70;98.30;;;;;;5115204;23;20242;-78
2021/04/13 05:06:04;;;;;;;8.93;6.18;;;2.60;98.30;;;;;;5124245;23;20698;-78
2021/04/13 05:08:06;;;;;;;8.45;6.13;;;2.50;98.30;;;;;;5115622;23;20670;-78
2021/04/13 05:10:09;;;;;;;9.45;6.55;;;2.40;98.30;;;;;;5122880;23;20203;-79
2021/04/13 05:12:11;;;;;;;6.65;5.82;;;2.30;98.30;;;;;;5115535;23;20234;-78
2021/04/13 05:14:13;;;;;;;10.00;6.47;;;2.30;98.30;;;;;;5115556;23;20673;-78
2021/04/13 05:16:15;;;;;;;9.77;7.18;;;2.30;98.30;;;;;;5123693;23;20203;-78
2021/04/13 05:18:17;;;;;;;10.20;7.65;;;2.30;98.30;;;;;;5123764;23;20616;-78
2021/04/13 05:20:23;;;;;;;9.48;6.90;;;2.30;98.30;;;;;;5123172;23;20288;-79
2021/04/13 05:22:25;;;;;;;12.38;7.55;;;2.40;98.30;;;;;;5115375;23;20206;-78
2021/04/13 05:24:27;;;;;;;12.05;7.13;;;2.40;98.30;;;;;;5114915;23;20218;-78
2021/04/13 05:26:29;;;;;;;11.05;6.95;;;2.30;98.30;;;;;;5115215;23;20217;-79
2021/04/13 05:28:31;;;;;;;8.68;7.55;;;2.30;98.30;;;;;;5115175;23;20206;-78
2021/04/13 05:30:33;;;;;;;9.52;7.05;;;2.40;98.30;;;;;;5114776;23;20206;-78
2021/04/13 05:32:35;;;;;;;12.55;8.45;;;2.50;98.30;;;;;;5114953;23;20206;-78
2021/04/13 05:34:37;;;;;;;18.38;10.85;;;2.50;98.30;;;;;;5114539;23;20205;-79
2021/04/13 05:36:43;;;;;;;12.82;8.35;;;2.50;98.30;;;;;;5123905;23;20210;-79
2021/04/13 05:38:45;;;;;;;15.68;8.23;;;2.60;98.30;;;;;;5123355;23;20199;-78
2021/04/13 05:40:47;;;;;;;10.73;7.63;;;2.70;98.30;;;;;;5122992;23;20230;-78
2021/04/13 05:42:50;;;;;;;9.95;8.15;;;2.70;98.30;;;;;;5114395;23;20212;-78
2021/04/13 05:44:53;;;;;;;13.88;9.38;;;2.70;98.30;;;;;;5114640;23;20218;-78
2021/04/13 05:46:55;;;;;;;11.48;8.55;;;2.80;98.30;;;;;;5114526;23;20207;-78
2021/04/13 05:48:57;;;;;;;12.38;7.75;;;2.80;98.30;;;;;;5114795;23;20206;-78
2021/04/13 05:51:00;;;;;;;12.15;8.25;;;2.80;98.30;;;;;;5115023;23;20298;-78
2021/04/13 05:53:04;;;;;;;10.60;7.60;;;2.80;98.30;;;;;;5126449;23;20210;-78
2021/04/13 05:55:06;;;;;;;12.35;7.97;;;2.90;98.30;;;;;;5114785;23;20207;-79
2021/04/13 05:57:11;;;;;;;11.18;8.10;;;2.90;98.30;;;;;;5114841;23;20209;-78
2021/04/13 05:59:15;;;;;;;12.32;7.72;;;3.10;98.30;;;;;;5113993;23;20214;-78
2021/04/13 06:01:20;;;;;;;11.00;7.15;;;3.20;98.30;;;;;;5115471;23;20207;-78
2021/04/13 06:03:25;;;;;;;10.95;7.40;;;3.20;98.30;;;;;;5115340;23;20207;-78
2021/04/13 06:05:29;;;;;;;10.52;6.80;;;3.40;98.30;;;;;;5115434;23;20530;-78
2021/04/13 06:07:31;;;;;;;13.15;6.65;;;3.40;98.30;;;;;;5115242;23;20692;-78
2021/04/13 06:09:33;;;;;;;8.60;6.05;;;3.40;98.30;;;;;;5114736;23;20206;-79
2021/04/13 06:11:35;;;;;;;15.85;7.35;;;3.40;98.30;;;;;;5115100;23;20664;-78
2021/04/13 06:13:37;;;;;;;9.63;6.00;;;3.40;98.30;;;;;;5115359;23;20728;-78
2021/04/13 06:15:39;;;;;;;12.45;6.72;;;3.40;98.30;;;;;;5115062;23;20207;-78
2021/04/13 06:17:41;;;;;;;8.27;6.20;;;3.40;98.30;;;;;;5115435;23;20258;-78
2021/04/13 06:19:43;;;;;;;8.30;5.70;;;3.40;98.30;;;;;;5114882;23;20203;-78
2021/04/13 06:21:46;;;;;;;10.02;6.20;;;3.40;98.30;;;;;;5115036;23;20210;-78
2021/04/13 06:23:47;;;;;;;13.70;6.75;;;3.40;98.30;;;;;;5123185;23;20240;-78
2021/04/13 06:25:50;;;;;;;11.27;7.07;;;3.50;98.30;;;;;;5115295;23;20207;-78
2021/04/13 06:27:54;;;;;;;11.23;7.90;;;3.50;98.30;;;;;;5123350;23;20207;-78
2021/04/13 06:29:55;;;;;;;8.45;5.57;;;3.60;98.30;;;;;;5114447;23;20237;-78
2021/04/13 06:31:57;;;;;;;10.73;6.10;;;3.80;98.30;;;;;;5115308;23;20206;-78
2021/04/13 06:33:59;;;;;;;8.85;5.45;;;3.90;98.30;;;;;;5122929;23;20202;-78
2021/04/13 06:36:03;;;;;;;13.35;5.43;;;3.90;98.30;;;;;;5123649;23;20198;-78
2021/04/13 06:38:10;;;;;;;12.98;6.90;;;3.80;98.30;;;;;;5115062;23;20207;-79
2021/04/13 06:40:28;;;;;;;12.35;6.00;;;3.80;98.30;;;;;;5114468;23;20211;-78
2021/04/13 06:42:51;;;;;;;9.90;5.82;;;3.80;98.30;;;;;;5123589;23;20221;-78
2021/04/13 06:45:20;;;;;;;13.57;6.28;;;3.90;98.30;;;;;;5115029;23;20210;-79
2021/04/13 06:47:35;;;;;;;10.38;5.28;;;4.00;98.30;;;;;;5115286;23;20505;-78
2021/04/13 06:49:50;;;;;;;11.02;5.55;;;4.00;98.30;;;;;;5114490;23;20238;-78
2021/04/13 06:52:03;;;;;;;12.93;5.25;;;3.90;98.30;;;;;;5115126;23;20285;-78
2021/04/13 06:54:11;;;;;;;5.65;4.63;;;4.00;98.30;;;;;;5114834;23;20203;-79
2021/04/13 06:56:23;;;;;;;9.52;5.10;;;4.10;98.30;;;;;;5115285;23;20301;-78
2021/04/13 06:58:38;;;;;;;10.70;4.75;;;4.10;98.30;;;;;;5114992;23;20206;-78
2021/04/13 07:00:52;;;;;;;11.02;4.88;;;4.20;98.30;;;;;;5114805;23;20234;-78
2021/04/13 07:03:08;;;;;;;7.40;4.53;;;4.40;98.30;;;;;;5110409;23;20299;-78
2021/04/13 07:05:15;;;;;;;6.90;4.03;;;4.40;98.30;;;;;;5112219;23;20533;-77
2021/04/13 07:07:22;;;;;;;7.00;4.03;;;4.50;98.30;;;;;;5112027;23;20288;-78
2021/04/13 07:09:32;;;;;;;9.77;4.32;;;4.50;98.30;;;;;;5111902;23;20512;-83
2021/04/13 07:11:39;;;;;;;8.73;4.20;;;4.80;98.30;;;;;;5112608;23;20206;-79
2021/04/13 07:13:51;;;;;;;9.65;4.30;;;5.00;98.30;;;;;;5112594;23;20206;-78
2021/04/13 07:16:00;;;;;;;9.20;4.30;;;5.00;98.30;;;;;;5121223;23;20214;-78
2021/04/13 07:18:08;;;;;;;7.03;4.50;;;5.00;98.30;;;;;;5120594;23;20204;-80
2021/04/13 07:20:14;;;;;;;15.00;4.32;;;5.00;98.30;;;;;;5120054;23;20818;-79
2021/04/13 07:22:24;;;;;;;13.07;5.00;;;5.10;98.30;;;;;;5112235;23;20595;-79
2021/04/13 07:24:30;;;;;;;10.17;4.00;;;5.20;98.30;;;;;;5111923;23;20293;-80
2021/04/13 07:26:36;;;;;;;11.07;3.70;;;5.40;98.30;;;;;;5112356;23;20456;-78
2021/04/13 07:28:41;;;;;;;7.80;4.00;;;5.50;98.30;;;;;;5111455;23;20469;-79
2021/04/13 07:30:50;;;;;;;4.60;3.27;;;5.60;98.30;;;;;;5119785;23;20445;-78
2021/04/13 07:32:53;;;;;;;5.50;2.93;;;5.70;98.30;;;;;;5111672;23;20984;-80
2021/04/13 07:34:58;;;;;;;7.37;4.10;;;5.70;98.30;;;;;;5111573;23;20451;-79
2021/04/13 07:37:03;;;;;;;10.10;4.43;;;5.50;98.30;;;;;;5112474;23;20871;-79
2021/04/13 07:39:06;;;;;;;7.07;3.20;;;5.40;98.30;;;;;;5120072;23;20954;-80
2021/04/13 07:41:12;;;;;;;7.00;3.30;;;5.60;98.30;;;;;;5120281;23;20463;-78
2021/04/13 07:43:20;;;;;;;6.30;3.23;;;5.80;98.30;;;;;;5120243;23;20452;-80
2021/04/13 07:45:30;;;;;;;6.57;3.00;;;6.10;98.30;;;;;;5112003;23;20454;-79
2021/04/13 07:48:03;;;;;;;4.80;2.60;;;6.20;98.30;;;;;;5112077;23;20460;-78
2021/04/13 07:50:06;;;;;;;9.57;3.43;;;6.20;98.30;;;;;;5120122;23;20919;-79
2021/04/13 07:52:29;;;;;;;12.20;3.43;;;6.40;98.30;;;;;;5110335;23;20461;-79
2021/04/13 07:54:48;;;;;;;4.47;2.40;;;6.60;98.30;;;;;;5112288;23;20907;-78
2021/04/13 07:56:55;;;;;;;6.90;2.83;;;6.50;98.30;;;;;;5122494;23;20440;-82
2021/04/13 07:58:59;;;;;;;8.17;5.30;;;6.40;98.30;;;;;;5120291;23;20471;-79
2021/04/13 08:01:07;;;;;;;5.33;2.93;;;6.30;98.30;;;;;;5112790;23;20453;-78
2021/04/13 08:03:19;;;;;;;10.47;3.40;;;6.30;98.30;;;;;;5112899;23;20436;-79
2021/04/13 08:05:40;;;;;;;9.93;4.77;;;6.40;98.30;;;;;;5121101;23;20500;-80
2021/04/13 08:08:04;;;;;;;7.20;3.23;;;6.60;98.30;;;;;;5121074;23;20963;-78
2021/04/13 08:10:31;;;;;;;8.50;3.53;;;6.60;98.30;;;;;;5119784;23;20533;-78
2021/04/13 08:12:34;;;;;;;5.00;3.00;;;6.60;98.30;;;;;;5123136;23;20544;-79
2021/04/13 08:14:38;;;;;;;3.67;2.53;;;6.80;98.30;;;;;;5114701;23;20450;-80
2021/04/13 08:16:40;;;;;;;4.20;3.10;;;6.80;98.30;;;;;;5121497;23;20811;-79
2021/04/13 08:18:52;;;;;;;8.00;3.40;;;6.70;98.30;;;;;;5122160;23;20532;-82
2021/04/13 08:20:56;;;;;;;13.37;4.80;;;6.70;98.30;;;;;;5115156;23;20427;-79
2021/04/13 08:23:00;;;;;;;12.40;3.93;;;6.60;98.30;;;;;;5114237;23;20457;-79
2021/04/13 08:25:03;;;;;;;7.27;3.90;;;6.70;98.30;;;;;;5122796;23;20456;-79
2021/04/13 08:27:39;;;;;;;7.70;3.57;;;6.80;98.30;;;;;;5114172;23;20994;-79
2021/04/13 08:29:49;;;;;;;7.73;3.80;;;6.90;98.30;;;;;;5099527;23;20472;-80
2021/04/13 08:34:46;;;;;;;9.77;4.10;;;7.20;98.30;;;;;;5122169;23;20423;-81
2021/04/13 08:36:53;;;;;;;11.30;4.00;;;7.40;98.30;;;;;;5112050;23;20428;-80
2021/04/13 08:39:03;;;;;;;9.87;3.47;;;7.40;98.30;;;;;;5115069;23;20440;-79
2021/04/13 08:41:19;;;;;;;10.50;3.80;;;7.30;98.30;;;;;;5115598;23;20457;-80
2021/04/13 08:43:30;;;;;;;7.37;3.30;;;7.30;98.30;;;;;;5123625;23;20413;-81
2021/04/13 08:45:36;;;;;;;7.57;3.50;;;7.30;98.30;;;;;;5124008;23;20441;-80
2021/04/13 08:47:43;;;;;;;5.67;3.57;;;7.40;98.30;;;;;;5113087;23;20524;-80
2021/04/13 08:49:53;;;;;;;16.20;4.07;;;7.70;98.30;;;;;;5121590;23;20427;-80
2021/04/13 08:52:15;;;;;;;12.63;4.40;;;7.90;98.30;;;;;;5114105;23;21091;-79
2021/04/13 08:54:29;;;;;;;11.93;3.90;;;8.10;98.30;;;;;;5113724;23;20504;-79
2021/04/13 08:56:31;;;;;;;12.03;3.40;;;8.30;98.30;;;;;;5121493;23;20896;-79
2021/04/13 08:58:43;;;;;;;5.70;3.40;;;8.40;98.30;;;;;;5121429;23;20455;-81
2021/04/13 09:02:56;;;;;;;18.80;10.50;;;8.20;98.30;;;;;;5109297;23;20439;-82
2021/04/13 09:05:10;;;;;;;11.00;4.40;;;8.40;98.30;;;;;;5097768;23;20770;-82
2021/04/13 09:07:23;;;;;;;6.90;3.27;;;8.50;98.30;;;;;;5106252;23;21129;-83
2021/04/13 09:09:33;;;;;;;10.77;3.40;;;8.10;98.30;;;;;;5107289;23;20454;-82
2021/04/13 09:11:47;;;;;;;16.73;7.97;;;7.50;98.30;;;;;;5108950;23;20510;-82
2021/04/13 09:14:11;;;;;;;19.30;9.20;;;7.40;98.30;;;;;;5102840;23;20454;-84
2021/04/13 09:16:25;;;;;;;7.03;3.20;;;7.50;98.30;;;;;;5100459;23;20442;-85
2021/04/13 09:18:32;;;;;;;9.37;3.83;;;7.70;98.30;;;;;;5101598;23;20441;-83
2021/04/13 09:20:40;;;;;;;9.37;4.63;;;7.80;98.30;;;;;;5102286;23;20458;-83
2021/04/13 09:22:54;;;;;;;7.00;3.63;;;8.20;98.30;;;;;;5102388;23;20452;-83
2021/04/13 09:25:10;;;;;;;9.40;3.20;;;8.60;98.30;;;;;;5103279;23;20461;-83
2021/04/13 09:27:40;;;;;;;13.50;3.67;;;8.90;98.30;;;;;;5102538;23;20426;-84
2021/04/13 09:29:46;;;;;;;14.53;4.30;;;9.30;98.30;;;;;;5091147;23;20436;-84
2021/04/13 09:31:48;;;;;;;7.57;3.27;;;9.40;98.30;;;;;;5097150;23;20550;-83
2021/04/13 09:33:51;;;;;;;12.30;3.50;;;9.70;98.30;;;;;;5102235;23;20438;-84
2021/04/13 09:36:13;;;;;;;8.53;2.93;;;9.90;98.30;;;;;;5103905;23;20449;-83
2021/04/13 09:38:34;;;;;;;9.97;3.60;;;9.90;98.30;;;;;;5102030;23;20447;-83
2021/04/13 09:40:45;;;;;;;5.50;2.37;;;9.60;96.20;;;;;;5093104;23;21211;-83
2021/04/13 09:43:18;;;;;;;12.37;3.13;;;9.40;96.10;;;;;;5099938;23;20813;-83
2021/04/13 09:45:33;;;;;;;10.90;3.20;;;9.50;97.00;;;;;;5093877;23;20965;-83
2021/04/13 09:47:54;;;;;;;12.83;3.30;;;9.90;94.80;;;;;;5094652;23;20505;-83
2021/04/13 09:50:04;;;;;;;19.63;9.17;;;10.30;93.20;;;;;;5100830;23;20778;-86
2021/04/13 09:52:27;;;;;;;20.90;8.77;;;10.50;91.10;;;;;;5101552;23;20446;-83
2021/04/13 09:54:34;;;;;;;9.13;3.33;;;10.60;89.20;;;;;;5103187;23;20761;-83
2021/04/13 09:57:15;;;;;;;8.57;3.17;;;10.20;90.50;;;;;;5096911;23;20454;-83
2021/04/13 09:59:42;;;;;;;14.63;3.53;;;10.10;91.30;;;;;;5094377;23;20460;-82
2021/04/13 10:02:16;;;;;;;11.43;3.40;;;10.30;92.10;;;;;;5120750;23;20493;-83
2021/04/13 10:04:30;;;;;;;12.13;3.50;;;10.60;92.10;;;;;;5121293;23;20462;-82
2021/04/13 10:06:37;;;;;;;19.23;8.30;;;10.80;90.30;;;;;;5128448;23;21007;-83
2021/04/13 10:08:47;;;;;;;14.30;6.10;;;10.90;89.80;;;;;;5119761;23;21058;-82
2021/04/13 10:11:24;;;;;;;14.63;4.03;;;11.00;87.80;;;;;;5129200;23;20534;-83
2021/04/13 10:14:00;;;;;;;11.03;3.40;;;10.60;88.90;;;;;;5125961;23;20509;-82
2021/04/13 10:16:06;;;;;;;7.80;3.30;;;10.70;86.50;;;;;;5116700;23;20507;-84
2021/04/13 10:18:53;;;;;;;6.77;3.70;;;10.90;85.30;;;;;;5114833;23;20458;-84
2021/04/13 10:21:01;;;;;;;8.07;2.83;;;11.40;85.30;;;;;;5123194;23;20441;-84
2021/04/13 10:23:38;;;;;;;6.77;2.87;;;11.70;84.30;;;;;;5121880;23;20785;-84
2021/04/13 10:26:22;;;;;;;9.20;3.03;;;11.70;82.40;;;;;;5076597;23;20479;-84
2021/04/13 10:28:56;;;;;;;6.33;3.00;;;11.60;83.30;;;;;;5073865;23;20460;-84
2021/04/13 10:31:27;;;;;;;9.90;3.07;;;11.60;82.90;;;;;;5111206;23;20516;-84
2021/04/13 10:34:02;;;;;;;7.97;3.80;;;11.90;83.50;;;;;;5106848;23;20453;-84
2021/04/13 10:36:32;;;;;;;9.37;3.50;;;11.80;81.30;;;;;;5124484;23;20496;-84
2021/04/13 10:38:51;;;;;;;6.47;2.90;;;12.10;81.40;;;;;;5121831;23;20454;-84
2021/04/13 10:41:49;;;;;;;5.77;3.20;;;12.30;80.00;;;;;;5122432;23;20460;-84
2021/04/13 10:44:26;;;;;;;12.63;3.50;;;12.40;81.10;;;;;;5122201;23;20452;-84
2021/04/13 10:46:34;;;;;;;4.50;2.60;;;12.70;80.30;;;;;;5122294;23;20453;-85
2021/04/13 10:48:54;;;;;;;15.40;5.93;;;12.80;78.50;;;;;;5113534;23;20449;-85
2021/04/13 10:51:15;;;;;;;31.33;19.33;;;13.00;79.30;;;;;;5121482;23;20530;-85
2021/04/13 10:53:56;;;;;;;9.43;3.70;;;13.50;78.70;;;;;;5113405;23;20775;-83
2021/04/13 10:56:28;;;;;;;8.53;3.37;;;13.50;76.20;;;;;;5013347;23;20766;-85
2021/04/13 10:59:08;;;;;;;5.83;3.00;;;13.20;78.00;;;;;;5088974;23;20450;-85
2021/04/13 11:01:40;;;;;;;7.37;3.27;;;13.30;77.40;;;;;;5113465;23;20462;-84
2021/04/13 11:04:39;;;;;;;6.00;2.37;;;12.90;77.30;;;;;;5113481;23;20461;-84
2021/04/13 11:07:20;;;;;;;8.07;2.93;;;12.70;76.80;;;;;;5121035;23;20453;-85
2021/04/13 11:09:38;;;;;;;6.60;3.00;;;13.10;74.80;;;;;;5080946;23;20982;-85
2021/04/13 11:12:06;;;;;;;5.07;2.83;;;13.50;74.50;;;;;;5121374;23;20452;-85
2021/04/13 11:14:41;;;;;;;7.90;2.93;;;13.90;75.60;;;;;;5121055;23;20450;-85
2021/04/13 11:17:11;;;;;;;5.17;2.60;;;14.10;76.20;;;;;;5113597;23;21000;-85
2021/04/13 11:19:25;;;;;;;10.30;3.00;;;13.50;77.00;;;;;;5112475;23;20564;-85
2021/04/13 11:21:53;;;;;;;6.07;2.63;;;13.00;76.90;;;;;;5121703;23;20445;-84
2021/04/13 11:24:31;;;;;;;7.23;3.63;;;13.40;76.30;;;;;;5121682;23;20453;-85
2021/04/13 11:30:19;;;;;;;6.03;2.80;;;14.00;76.40;;;;;;5121571;23;20441;-85